createdAt,value
2022-11-14T00:00:35.620Z,1020.30
2022-11-14T00:01:35.612Z,1020.30
2022-11-14T00:02:35.645Z,1020.25
2022-11-14T00:03:35.601Z,1020.24
2022-11-14T00:04:35.624Z,1020.27
2022-11-14T00:05:35.566Z,1020.26
2022-11-14T00:06:35.560Z,1020.27
2022-11-14T00:07:35.543Z,1020.17
2022-11-14T00:08:35.538Z,1020.20
2022-11-14T00:09:35.544Z,1020.23
2022-11-14T00:10:35.515Z,1020.22
2022-11-14T00:11:35.501Z,1020.20
2022-11-14T00:12:35.607Z,1020.21
2022-11-14T00:13:35.505Z,1020.21
2022-11-14T00:14:35.495Z,1020.11
2022-11-14T00:15:35.457Z,1020.18
2022-11-14T00:16:35.445Z,1020.14
2022-11-14T00:17:35.434Z,1020.18
2022-11-14T00:18:35.423Z,1020.12
2022-11-14T00:19:35.439Z,1020.11
2022-11-14T00:20:35.405Z,1020.13
2022-11-14T00:21:35.413Z,1020.10
2022-11-14T00:22:35.380Z,1020.05
2022-11-14T00:23:35.369Z,1020.06
2022-11-14T00:24:35.353Z,1020.10
2022-11-14T00:25:35.350Z,1020.07
2022-11-14T00:26:35.359Z,1019.97
2022-11-14T00:27:35.322Z,1020.05
2022-11-14T00:28:35.425Z,1019.98
2022-11-14T00:29:35.308Z,1020.01
2022-11-14T00:30:35.317Z,1020.01
2022-11-14T00:31:35.279Z,1020.02
2022-11-14T00:32:35.274Z,1019.91
2022-11-14T00:33:35.258Z,1019.95
2022-11-14T00:34:35.242Z,1019.91
2022-11-14T00:35:35.258Z,1019.90
2022-11-14T00:36:35.227Z,1019.83
2022-11-14T00:37:35.240Z,1019.88
2022-11-14T00:38:35.200Z,1019.94
2022-11-14T00:39:35.191Z,1019.93
2022-11-14T00:40:35.216Z,1019.88
2022-11-14T00:41:35.169Z,1019.84
2022-11-14T00:42:35.158Z,1019.91
2022-11-14T00:43:35.147Z,1019.83
2022-11-14T00:44:35.249Z,1019.87
2022-11-14T00:45:35.143Z,1019.86
2022-11-14T00:46:35.136Z,1019.87
2022-11-14T00:47:35.102Z,1019.86
2022-11-14T00:48:35.093Z,1019.93
2022-11-14T00:49:35.084Z,1019.88
2022-11-14T00:50:35.071Z,1019.91
2022-11-14T00:51:35.082Z,1019.85
2022-11-14T00:52:35.048Z,1019.84
2022-11-14T00:53:35.037Z,1019.86
2022-11-14T00:54:35.027Z,1019.87
2022-11-14T00:55:35.018Z,1019.83
2022-11-14T00:56:35.026Z,1019.77
2022-11-14T00:57:34.995Z,1019.74
2022-11-14T00:58:34.986Z,1019.78
2022-11-14T00:59:34.997Z,1019.84
2022-11-14T01:00:35.147Z,1019.81
2022-11-14T01:01:34.974Z,1019.82
2022-11-14T01:02:34.943Z,1019.71
2022-11-14T01:03:34.954Z,1019.75
2022-11-14T01:04:34.919Z,1019.76
2022-11-14T01:05:34.902Z,1019.74
2022-11-14T01:06:34.891Z,1019.68
2022-11-14T01:07:34.886Z,1019.63
2022-11-14T01:08:34.904Z,1019.65
2022-11-14T01:09:34.906Z,1019.62
2022-11-14T01:10:34.851Z,1019.60
2022-11-14T01:11:34.840Z,1019.63
2022-11-14T01:12:34.828Z,1019.63
2022-11-14T01:13:34.846Z,1019.53
2022-11-14T01:14:34.802Z,1019.53
2022-11-14T01:15:34.799Z,1019.53
2022-11-14T01:16:34.900Z,1019.59
2022-11-14T01:17:34.776Z,1019.52
2022-11-14T01:18:34.764Z,1019.53
2022-11-14T01:19:34.772Z,1019.50
2022-11-14T01:20:34.736Z,1019.50
2022-11-14T01:21:34.732Z,1019.52
2022-11-14T01:22:34.721Z,1019.51
2022-11-14T01:23:34.707Z,1019.52
2022-11-14T01:24:34.713Z,1019.57
2022-11-14T01:25:34.682Z,1019.50
2022-11-14T01:26:34.692Z,1019.49
2022-11-14T01:27:34.664Z,1019.52
2022-11-14T01:28:34.649Z,1019.43
2022-11-14T01:29:34.658Z,1019.41
2022-11-14T01:30:34.628Z,1019.40
2022-11-14T01:31:34.618Z,1019.41
2022-11-14T01:32:34.726Z,1019.34
2022-11-14T01:33:34.595Z,1019.30
2022-11-14T01:34:34.606Z,1019.30
2022-11-14T01:35:34.575Z,1019.28
2022-11-14T01:36:34.587Z,1019.29
2022-11-14T01:37:34.552Z,1019.25
2022-11-14T01:38:34.542Z,1019.22
2022-11-14T01:39:34.554Z,1019.22
2022-11-14T01:40:34.520Z,1019.22
2022-11-14T01:41:34.511Z,1019.19
2022-11-14T01:42:34.499Z,1019.16
2022-11-14T01:43:34.507Z,1019.16
2022-11-14T01:44:34.499Z,1019.17
2022-11-14T01:45:34.478Z,1019.12
2022-11-14T01:46:34.463Z,1019.15
2022-11-14T01:47:34.446Z,1019.06
2022-11-14T01:48:34.551Z,1019.06
2022-11-14T01:49:34.456Z,1019.02
2022-11-14T01:50:34.417Z,1019.06
2022-11-14T01:51:34.398Z,1019.05
2022-11-14T01:52:34.383Z,1019.11
2022-11-14T01:53:34.376Z,1019.02
2022-11-14T01:54:34.389Z,1019.02
2022-11-14T01:55:34.354Z,1018.92
2022-11-14T01:56:34.343Z,1018.98
2022-11-14T01:57:34.337Z,1018.99
2022-11-14T01:58:34.356Z,1018.97
2022-11-14T01:59:34.340Z,1019.03
2022-11-14T02:00:34.294Z,1018.99
2022-11-14T02:01:34.299Z,1019.00
2022-11-14T02:02:34.276Z,1018.94
2022-11-14T02:03:34.269Z,1018.87
2022-11-14T02:04:34.392Z,1018.94
2022-11-14T02:05:34.244Z,1018.93
2022-11-14T02:06:34.248Z,1018.86
2022-11-14T02:07:34.264Z,1018.89
2022-11-14T02:08:34.212Z,1018.90
2022-11-14T02:09:34.203Z,1018.89
2022-11-14T02:10:34.190Z,1018.90
2022-11-14T02:11:34.202Z,1018.80
2022-11-14T02:12:34.171Z,1018.81
2022-11-14T02:13:34.156Z,1018.84
2022-11-14T02:14:34.152Z,1018.77
2022-11-14T02:15:34.138Z,1018.76
2022-11-14T02:16:34.146Z,1018.78
2022-11-14T02:17:34.116Z,1018.78
2022-11-14T02:18:34.101Z,1018.81
2022-11-14T02:19:34.089Z,1018.78
2022-11-14T02:20:34.199Z,1018.82
2022-11-14T02:21:34.095Z,1018.79
2022-11-14T02:22:34.059Z,1018.72
2022-11-14T02:23:34.049Z,1018.72
2022-11-14T02:24:34.044Z,1018.68
2022-11-14T02:25:34.048Z,1018.69
2022-11-14T02:26:36.726Z,1018.67
2022-11-14T02:27:34.007Z,1018.68
2022-11-14T02:28:33.986Z,1018.68
2022-11-14T02:29:34.013Z,1018.67
2022-11-14T02:30:33.968Z,1018.65
2022-11-14T02:31:33.959Z,1018.64
2022-11-14T02:32:57.068Z,1018.69
2022-11-14T02:33:34.935Z,1018.68
2022-11-14T02:34:33.938Z,1018.66
2022-11-14T02:35:33.944Z,1018.63
2022-11-14T02:36:34.014Z,1018.63
2022-11-14T02:37:33.906Z,1018.65
2022-11-14T02:38:33.880Z,1018.66
2022-11-14T02:39:33.874Z,1018.59
2022-11-14T02:40:33.884Z,1018.49
2022-11-14T02:41:33.850Z,1018.44
2022-11-14T02:42:33.840Z,1018.44
2022-11-14T02:43:33.829Z,1018.51
2022-11-14T02:44:33.817Z,1018.55
2022-11-14T02:45:33.826Z,1018.52
2022-11-14T02:46:33.792Z,1018.46
2022-11-14T02:47:33.788Z,1018.36
2022-11-14T02:48:33.775Z,1018.46
2022-11-14T02:49:33.765Z,1018.47
2022-11-14T02:50:33.779Z,1018.38
2022-11-14T02:51:33.792Z,1018.34
2022-11-14T02:52:33.849Z,1018.30
2022-11-14T02:53:33.721Z,1018.35
2022-11-14T02:54:33.707Z,1018.32
2022-11-14T02:55:33.720Z,1018.34
2022-11-14T02:56:33.683Z,1018.34
2022-11-14T02:57:33.677Z,1018.37
2022-11-14T02:58:33.665Z,1018.39
2022-11-14T02:59:33.655Z,1018.29
2022-11-14T03:00:33.712Z,1018.39
2022-11-14T03:01:33.672Z,1018.33
2022-11-14T03:02:33.620Z,1018.24
2022-11-14T03:03:33.612Z,1018.25
2022-11-14T03:04:33.596Z,1018.31
2022-11-14T03:05:33.611Z,1018.28
2022-11-14T03:06:33.572Z,1018.22
2022-11-14T03:07:33.630Z,1018.30
2022-11-14T03:08:33.664Z,1018.27
2022-11-14T03:09:33.545Z,1018.22
2022-11-14T03:10:33.561Z,1018.21
2022-11-14T03:11:33.524Z,1018.25
2022-11-14T03:12:33.512Z,1018.20
2022-11-14T03:13:33.499Z,1018.21
2022-11-14T03:14:33.491Z,1018.18
2022-11-14T03:15:33.476Z,1018.18
2022-11-14T03:16:33.490Z,1018.20
2022-11-14T03:17:33.461Z,1018.23
2022-11-14T03:18:33.453Z,1018.24
2022-11-14T03:19:33.439Z,1018.18
2022-11-14T03:20:33.447Z,1018.15
2022-11-14T03:21:33.439Z,1018.21
2022-11-14T03:22:33.403Z,1018.21
2022-11-14T03:23:33.397Z,1018.24
2022-11-14T03:24:33.498Z,1018.25
2022-11-14T03:25:33.397Z,1018.23
2022-11-14T03:26:33.385Z,1018.19
2022-11-14T03:27:33.345Z,1018.15
2022-11-14T03:28:33.338Z,1018.14
2022-11-14T03:29:33.322Z,1018.19
2022-11-14T03:30:33.316Z,1018.15
2022-11-14T03:31:33.323Z,1018.11
2022-11-14T03:32:33.287Z,1018.04
2022-11-14T03:33:33.282Z,1018.06
2022-11-14T03:34:33.272Z,1018.07
2022-11-14T03:35:33.264Z,1018.03
2022-11-14T03:36:33.270Z,1018.07
2022-11-14T03:37:33.239Z,1018.09
2022-11-14T03:38:33.235Z,1018.08
2022-11-14T03:39:33.229Z,1018.11
2022-11-14T03:40:33.340Z,1017.99
2022-11-14T03:41:33.216Z,1018.00
2022-11-14T03:42:33.183Z,1017.91
2022-11-14T03:43:33.179Z,1017.95
2022-11-14T03:44:33.157Z,1017.92
2022-11-14T03:45:33.176Z,1017.86
2022-11-14T03:46:33.171Z,1017.89
2022-11-14T03:47:33.129Z,1017.88
2022-11-14T03:48:33.445Z,1017.90
2022-11-14T03:49:33.104Z,1017.87
2022-11-14T03:50:33.116Z,1017.92
2022-11-14T03:51:33.085Z,1017.90
2022-11-14T03:52:33.070Z,1017.90
2022-11-14T03:53:33.088Z,1017.90
2022-11-14T03:54:33.052Z,1017.96
2022-11-14T03:55:33.042Z,1017.92
2022-11-14T03:56:33.142Z,1017.90
2022-11-14T03:57:33.030Z,1017.87
2022-11-14T03:58:33.380Z,1017.90
2022-11-14T03:59:32.996Z,1017.89
2022-11-14T04:00:33.024Z,1017.87
2022-11-14T04:01:32.974Z,1017.82
2022-11-14T04:02:32.967Z,1017.85
2022-11-14T04:03:32.954Z,1017.83
2022-11-14T04:04:32.963Z,1017.78
2022-11-14T04:05:32.929Z,1017.83
2022-11-14T04:06:32.939Z,1017.84
2022-11-14T04:07:33.023Z,1017.85
2022-11-14T04:08:33.459Z,1017.81
2022-11-14T04:09:32.909Z,1017.68
2022-11-14T04:10:32.878Z,1017.74
2022-11-14T04:11:32.884Z,1017.74
2022-11-14T04:12:32.967Z,1017.69
2022-11-14T04:13:32.840Z,1017.78
2022-11-14T04:14:32.855Z,1017.81
2022-11-14T04:15:32.819Z,1017.74
2022-11-14T04:16:32.840Z,1017.80
2022-11-14T04:17:38.541Z,1017.72
2022-11-14T04:18:33.789Z,1017.72
2022-11-14T04:19:32.779Z,1017.69
2022-11-14T04:20:32.765Z,1017.70
2022-11-14T04:21:32.777Z,1017.67
2022-11-14T04:22:32.745Z,1017.73
2022-11-14T04:23:32.733Z,1017.64
2022-11-14T04:24:32.744Z,1017.67
2022-11-14T04:25:32.714Z,1017.66
2022-11-14T04:26:32.701Z,1017.57
2022-11-14T04:27:32.710Z,1017.59
2022-11-14T04:28:32.875Z,1017.58
2022-11-14T04:29:32.668Z,1017.61
2022-11-14T04:30:34.883Z,1017.56
2022-11-14T04:31:32.670Z,1017.56
2022-11-14T04:32:32.635Z,1017.52
2022-11-14T04:33:32.626Z,1017.55
2022-11-14T04:34:32.614Z,1017.51
2022-11-14T04:35:32.602Z,1017.50
2022-11-14T04:36:32.621Z,1017.54
2022-11-14T04:37:32.587Z,1017.45
2022-11-14T04:38:33.014Z,1017.53
2022-11-14T04:39:32.577Z,1017.47
2022-11-14T04:40:32.550Z,1017.47
2022-11-14T04:41:32.563Z,1017.49
2022-11-14T04:42:32.522Z,1017.47
2022-11-14T04:43:32.514Z,1017.45
2022-11-14T04:44:32.644Z,1017.42
2022-11-14T04:45:32.514Z,1017.46
2022-11-14T04:46:32.507Z,1017.39
2022-11-14T04:47:32.471Z,1017.42
2022-11-14T04:48:32.811Z,1017.41
2022-11-14T04:49:32.446Z,1017.35
2022-11-14T04:50:32.436Z,1017.39
2022-11-14T04:51:32.453Z,1017.35
2022-11-14T04:52:32.417Z,1017.38
2022-11-14T04:53:32.413Z,1017.36
2022-11-14T04:54:32.424Z,1017.31
2022-11-14T04:55:32.392Z,1017.38
2022-11-14T04:56:32.376Z,1017.35
2022-11-14T04:57:32.367Z,1017.32
2022-11-14T04:58:32.611Z,1017.35
2022-11-14T04:59:32.346Z,1017.31
2022-11-14T05:00:32.345Z,1017.32
2022-11-14T05:01:32.404Z,1017.27
2022-11-14T05:02:32.333Z,1017.35
2022-11-14T05:03:32.296Z,1017.31
2022-11-14T05:04:32.294Z,1017.32
2022-11-14T05:05:32.280Z,1017.30
2022-11-14T05:06:32.265Z,1017.34
2022-11-14T05:07:32.332Z,1017.32
2022-11-14T05:08:32.701Z,1017.32
2022-11-14T05:09:32.247Z,1017.28
2022-11-14T05:10:32.230Z,1017.31
2022-11-14T05:11:32.217Z,1017.38
2022-11-14T05:12:32.203Z,1017.32
2022-11-14T05:13:32.212Z,1017.34
2022-11-14T05:14:32.192Z,1017.38
2022-11-14T05:15:32.163Z,1017.34
2022-11-14T05:16:32.158Z,1017.38
2022-11-14T05:17:32.189Z,1017.35
2022-11-14T05:18:32.726Z,1017.37
2022-11-14T05:19:32.123Z,1017.31
2022-11-14T05:20:32.112Z,1017.34
2022-11-14T05:21:32.101Z,1017.30
2022-11-14T05:22:32.112Z,1017.34
2022-11-14T05:23:32.106Z,1017.34
2022-11-14T05:24:32.070Z,1017.32
2022-11-14T05:25:32.058Z,1017.35
2022-11-14T05:26:32.049Z,1017.26
2022-11-14T05:27:32.035Z,1017.26
2022-11-14T05:28:32.278Z,1017.26
2022-11-14T05:29:32.013Z,1017.27
2022-11-14T05:30:32.012Z,1017.23
2022-11-14T05:31:31.997Z,1017.25
2022-11-14T05:32:31.985Z,1017.27
2022-11-14T05:33:32.034Z,1017.29
2022-11-14T05:34:31.965Z,1017.21
2022-11-14T05:35:31.950Z,1017.21
2022-11-14T05:36:31.938Z,1017.24
2022-11-14T05:37:31.954Z,1017.23
2022-11-14T05:38:32.350Z,1017.22
2022-11-14T05:39:31.926Z,1017.19
2022-11-14T05:40:31.894Z,1017.22
2022-11-14T05:41:31.881Z,1017.28
2022-11-14T05:42:31.875Z,1017.31
2022-11-14T05:43:31.865Z,1017.23
2022-11-14T05:44:31.875Z,1017.28
2022-11-14T05:45:31.838Z,1017.23
2022-11-14T05:46:31.830Z,1017.25
2022-11-14T05:47:31.837Z,1017.26
2022-11-14T05:48:32.339Z,1017.24
2022-11-14T05:49:31.828Z,1017.22
2022-11-14T05:50:31.787Z,1017.25
2022-11-14T05:51:31.774Z,1017.20
2022-11-14T05:52:31.787Z,1017.26
2022-11-14T05:53:31.758Z,1017.27
2022-11-14T05:54:31.767Z,1017.28
2022-11-14T05:55:31.732Z,1017.22
2022-11-14T05:56:31.720Z,1017.25
2022-11-14T05:57:31.708Z,1017.21
2022-11-14T05:58:32.077Z,1017.24
2022-11-14T05:59:31.708Z,1017.27
2022-11-14T06:00:36.251Z,1017.27
2022-11-14T06:01:32.688Z,1017.28
2022-11-14T06:02:31.721Z,1017.25
2022-11-14T06:03:31.643Z,1017.24
2022-11-14T06:04:31.658Z,1017.15
2022-11-14T06:05:31.642Z,1017.24
2022-11-14T06:06:31.615Z,1017.17
2022-11-14T06:07:31.674Z,1017.23
2022-11-14T06:08:31.997Z,1017.25
2022-11-14T06:09:31.574Z,1017.21
2022-11-14T06:10:31.594Z,1017.22
2022-11-14T06:11:31.561Z,1017.21
2022-11-14T06:12:31.546Z,1017.19
2022-11-14T06:13:31.568Z,1017.21
2022-11-14T06:14:31.519Z,1017.21
2022-11-14T06:15:31.512Z,1017.16
2022-11-14T06:16:31.503Z,1017.16
2022-11-14T06:17:31.490Z,1017.17
2022-11-14T06:18:31.897Z,1017.17
2022-11-14T06:19:31.467Z,1017.10
2022-11-14T06:20:31.479Z,1017.21
2022-11-14T06:21:31.466Z,1017.17
2022-11-14T06:22:31.441Z,1017.20
2022-11-14T06:23:31.450Z,1017.11
2022-11-14T06:24:31.413Z,1017.16
2022-11-14T06:25:31.437Z,1017.12
2022-11-14T06:26:31.389Z,1017.13
2022-11-14T06:27:31.384Z,1017.18
2022-11-14T06:28:31.720Z,1017.09
2022-11-14T06:29:35.301Z,1017.16
2022-11-14T06:30:31.380Z,1017.11
2022-11-14T06:31:31.331Z,1017.12
2022-11-14T06:32:31.337Z,1017.12
2022-11-14T06:33:31.313Z,1017.13
2022-11-14T06:34:31.304Z,1017.19
2022-11-14T06:35:31.316Z,1017.17
2022-11-14T06:36:31.283Z,1017.18
2022-11-14T06:37:33.706Z,1017.19
2022-11-14T06:38:31.782Z,1017.19
2022-11-14T06:39:31.283Z,1017.24
2022-11-14T06:40:31.238Z,1017.24
2022-11-14T06:41:31.254Z,1017.24
2022-11-14T06:42:31.218Z,1017.26
2022-11-14T06:43:31.204Z,1017.21
2022-11-14T06:44:31.396Z,1017.19
2022-11-14T06:45:31.180Z,1017.15
2022-11-14T06:46:31.193Z,1017.17
2022-11-14T06:47:31.177Z,1017.12
2022-11-14T06:48:31.543Z,1017.18
2022-11-14T06:49:31.965Z,1017.17
2022-11-14T06:50:31.160Z,1017.21
2022-11-14T06:51:31.118Z,1017.19
2022-11-14T06:52:31.104Z,1017.24
2022-11-14T06:53:31.120Z,1017.16
2022-11-14T06:54:31.081Z,1017.23
2022-11-14T06:55:31.096Z,1017.18
2022-11-14T06:56:31.064Z,1017.20
2022-11-14T06:57:31.054Z,1017.20
2022-11-14T06:58:31.333Z,1017.14
2022-11-14T06:59:31.061Z,1017.15
2022-11-14T07:00:31.126Z,1017.14
2022-11-14T07:01:31.003Z,1017.17
2022-11-14T07:02:30.995Z,1017.14
2022-11-14T07:03:31.088Z,1017.15
2022-11-14T07:04:30.995Z,1017.13
2022-11-14T07:05:30.967Z,1017.13
2022-11-14T07:06:30.955Z,1017.12
2022-11-14T07:07:30.981Z,1017.13
2022-11-14T07:08:31.247Z,1017.09
2022-11-14T07:09:30.942Z,1017.22
2022-11-14T07:10:30.907Z,1017.17
2022-11-14T07:11:30.895Z,1017.08
2022-11-14T07:12:30.888Z,1017.08
2022-11-14T07:13:30.899Z,1017.16
2022-11-14T07:14:30.863Z,1017.10
2022-11-14T07:15:30.855Z,1017.19
2022-11-14T07:16:30.870Z,1017.16
2022-11-14T07:17:31.400Z,1017.26
2022-11-14T07:18:31.244Z,1017.21
2022-11-14T07:19:30.811Z,1017.20
2022-11-14T07:20:30.800Z,1017.27
2022-11-14T07:21:30.789Z,1017.24
2022-11-14T07:22:30.775Z,1017.28
2022-11-14T07:23:30.792Z,1017.31
2022-11-14T07:24:30.758Z,1017.31
2022-11-14T07:25:30.768Z,1017.35
2022-11-14T07:26:30.738Z,1017.32
2022-11-14T07:27:30.742Z,1017.24
2022-11-14T07:28:31.190Z,1017.24
2022-11-14T07:29:30.723Z,1017.32
2022-11-14T07:30:30.695Z,1017.33
2022-11-14T07:31:30.687Z,1017.32
2022-11-14T07:32:30.689Z,1017.26
2022-11-14T07:33:30.661Z,1017.22
2022-11-14T07:34:30.648Z,1017.17
2022-11-14T07:35:30.645Z,1017.16
2022-11-14T07:36:30.642Z,1017.16
2022-11-14T07:37:30.639Z,1017.08
2022-11-14T07:38:30.864Z,1017.12
2022-11-14T07:39:30.588Z,1017.08
2022-11-14T07:40:30.587Z,1017.06
2022-11-14T07:41:30.601Z,1017.02
2022-11-14T07:42:30.585Z,1017.01
2022-11-14T07:43:30.545Z,1017.03
2022-11-14T07:44:30.551Z,1016.96
2022-11-14T07:45:30.535Z,1017.02
2022-11-14T07:46:30.512Z,1016.99
2022-11-14T07:47:30.520Z,1016.93
2022-11-14T07:48:30.742Z,1016.94
2022-11-14T07:49:30.484Z,1016.96
2022-11-14T07:50:30.475Z,1016.93
2022-11-14T07:51:30.478Z,1016.95
2022-11-14T07:52:30.452Z,1016.95
2022-11-14T07:53:30.439Z,1016.97
2022-11-14T07:54:30.430Z,1016.92
2022-11-14T07:55:30.423Z,1016.94
2022-11-14T07:56:30.426Z,1016.96
2022-11-14T07:57:32.398Z,1016.96
2022-11-14T07:58:30.748Z,1016.96
2022-11-14T07:59:30.376Z,1016.98
2022-11-14T08:00:30.369Z,1016.97
2022-11-14T08:01:30.448Z,1016.98
2022-11-14T08:02:30.367Z,1016.98
2022-11-14T08:03:30.329Z,1016.96
2022-11-14T08:04:30.321Z,1017.04
2022-11-14T08:05:30.307Z,1016.95
2022-11-14T08:06:30.300Z,1017.03
2022-11-14T08:07:30.397Z,1017.03
2022-11-14T08:08:30.637Z,1016.99
2022-11-14T08:09:30.268Z,1016.97
2022-11-14T08:10:33.631Z,1016.90
2022-11-14T08:11:35.219Z,1016.95
2022-11-14T08:12:31.274Z,1016.88
2022-11-14T08:13:33.079Z,1016.95
2022-11-14T08:14:30.215Z,1016.96
2022-11-14T08:15:30.198Z,1016.97
2022-11-14T08:16:30.190Z,1016.98
2022-11-14T08:17:30.200Z,1016.98
2022-11-14T08:18:30.513Z,1017.03
2022-11-14T08:19:30.163Z,1016.96
2022-11-14T08:20:30.146Z,1016.94
2022-11-14T08:21:30.131Z,1016.94
2022-11-14T08:22:30.144Z,1016.91
2022-11-14T08:23:30.109Z,1016.94
2022-11-14T08:24:30.103Z,1016.91
2022-11-14T08:25:30.091Z,1016.94
2022-11-14T08:26:34.099Z,1016.94
2022-11-14T08:27:30.089Z,1016.88
2022-11-14T08:28:30.492Z,1016.88
2022-11-14T08:29:30.064Z,1016.96
2022-11-14T08:30:30.058Z,1016.95
2022-11-14T08:31:30.030Z,1016.94
2022-11-14T08:32:30.011Z,1016.90
2022-11-14T08:33:30.031Z,1016.99
2022-11-14T08:34:29.990Z,1016.93
2022-11-14T08:35:30.004Z,1016.96
2022-11-14T08:36:29.965Z,1016.91
2022-11-14T08:37:29.957Z,1016.93
2022-11-14T08:38:30.243Z,1016.96
2022-11-14T08:39:29.930Z,1016.95
2022-11-14T08:40:29.952Z,1016.94
2022-11-14T08:41:29.921Z,1016.91
2022-11-14T08:42:29.904Z,1016.87
2022-11-14T08:43:29.907Z,1016.91
2022-11-14T08:44:29.878Z,1016.79
2022-11-14T08:45:29.924Z,1016.80
2022-11-14T08:46:29.890Z,1016.84
2022-11-14T08:47:29.847Z,1016.88
2022-11-14T08:48:30.206Z,1016.85
2022-11-14T08:49:29.829Z,1016.78
2022-11-14T08:50:29.835Z,1016.80
2022-11-14T08:51:29.824Z,1016.81
2022-11-14T08:52:29.828Z,1016.72
2022-11-14T08:53:29.780Z,1016.71
2022-11-14T08:54:29.775Z,1016.68
2022-11-14T08:55:29.759Z,1016.70
2022-11-14T08:56:29.748Z,1016.82
2022-11-14T08:57:29.761Z,1016.71
2022-11-14T08:58:30.158Z,1016.78
2022-11-14T08:59:29.720Z,1016.75
2022-11-14T09:00:29.709Z,1016.77
2022-11-14T09:01:29.740Z,1016.81
2022-11-14T09:02:29.680Z,1016.75
2022-11-14T09:03:29.736Z,1016.76
2022-11-14T09:04:29.703Z,1016.75
2022-11-14T09:05:29.646Z,1016.75
2022-11-14T09:06:29.672Z,1016.76
2022-11-14T09:07:29.761Z,1016.80
2022-11-14T09:08:30.116Z,1016.82
2022-11-14T09:09:29.607Z,1016.71
2022-11-14T09:10:29.597Z,1016.72
2022-11-14T09:11:29.584Z,1016.76
2022-11-14T09:12:29.598Z,1016.76
2022-11-14T09:13:29.931Z,1016.77
2022-11-14T09:14:29.550Z,1016.77
2022-11-14T09:15:29.545Z,1016.68
2022-11-14T09:16:29.527Z,1016.64
2022-11-14T09:17:29.559Z,1016.66
2022-11-14T09:18:29.837Z,1016.66
2022-11-14T09:19:29.498Z,1016.63
2022-11-14T09:20:34.053Z,1016.61
2022-11-14T09:21:30.505Z,1016.57
2022-11-14T09:22:29.493Z,1016.55
2022-11-14T09:23:29.704Z,1016.60
2022-11-14T09:24:29.442Z,1016.57
2022-11-14T09:25:29.432Z,1016.50
2022-11-14T09:26:29.412Z,1016.53
2022-11-14T09:27:29.434Z,1016.59
2022-11-14T09:28:29.402Z,1016.59
2022-11-14T09:29:29.391Z,1016.60
2022-11-14T09:30:29.372Z,1016.64
2022-11-14T09:31:29.389Z,1016.52
2022-11-14T09:32:29.352Z,1016.55
2022-11-14T09:33:29.780Z,1016.49
2022-11-14T09:34:29.334Z,1016.53
2022-11-14T09:35:29.320Z,1016.54
2022-11-14T09:36:29.346Z,1016.50
2022-11-14T09:37:29.306Z,1016.50
2022-11-14T09:38:31.809Z,1016.44
2022-11-14T09:39:30.279Z,1016.55
2022-11-14T09:40:29.267Z,1016.49
2022-11-14T09:41:29.272Z,1016.56
2022-11-14T09:42:29.247Z,1016.52
2022-11-14T09:43:29.500Z,1016.55
2022-11-14T09:44:29.222Z,1016.51
2022-11-14T09:45:29.211Z,1016.54
2022-11-14T09:46:29.221Z,1016.46
2022-11-14T09:47:29.189Z,1016.52
2022-11-14T09:48:29.588Z,1016.55
2022-11-14T09:49:29.190Z,1016.58
2022-11-14T09:50:29.160Z,1016.59
2022-11-14T09:51:29.170Z,1016.56
2022-11-14T09:52:29.134Z,1016.51
2022-11-14T09:53:29.131Z,1016.48
2022-11-14T09:54:29.119Z,1016.55
2022-11-14T09:55:33.614Z,1016.58
2022-11-14T09:56:30.118Z,1016.54
2022-11-14T09:57:29.077Z,1016.55
2022-11-14T09:58:29.369Z,1016.51
2022-11-14T09:59:29.062Z,1016.49
2022-11-14T10:00:29.047Z,1016.50
2022-11-14T10:01:29.162Z,1016.48
2022-11-14T10:02:29.024Z,1016.45
2022-11-14T10:03:29.406Z,1016.44
2022-11-14T10:04:29.010Z,1016.41
2022-11-14T10:05:29.010Z,1016.38
2022-11-14T10:06:29.018Z,1016.33
2022-11-14T10:07:29.104Z,1016.34
2022-11-14T10:08:28.967Z,1016.28
2022-11-14T10:09:30.668Z,1016.25
2022-11-14T10:10:28.935Z,1016.25
2022-11-14T10:11:28.927Z,1016.32
2022-11-14T10:12:28.930Z,1016.28
2022-11-14T10:13:29.392Z,1016.29
2022-11-14T10:14:28.923Z,1016.26
2022-11-14T10:15:33.688Z,1016.18
2022-11-14T10:16:29.878Z,1016.13
2022-11-14T10:17:28.867Z,1016.08
2022-11-14T10:18:29.191Z,1016.04
2022-11-14T10:19:30.664Z,1016.06
2022-11-14T10:20:28.856Z,1016.11
2022-11-14T10:21:28.836Z,1016.06
2022-11-14T10:22:28.808Z,1016.07
2022-11-14T10:23:29.209Z,1015.99
2022-11-14T10:24:28.804Z,1015.94
2022-11-14T10:25:28.783Z,1015.93
2022-11-14T10:26:28.789Z,1015.91
2022-11-14T10:27:28.762Z,1015.86
2022-11-14T10:28:29.166Z,1015.91
2022-11-14T10:29:28.730Z,1015.83
2022-11-14T10:30:28.724Z,1015.89
2022-11-14T10:31:28.712Z,1015.82
2022-11-14T10:32:28.695Z,1015.87
2022-11-14T10:33:28.686Z,1015.94
2022-11-14T10:34:28.701Z,1015.96
2022-11-14T10:35:33.856Z,1015.92
2022-11-14T10:36:29.652Z,1015.95
2022-11-14T10:37:28.661Z,1015.92
2022-11-14T10:38:29.065Z,1015.94
2022-11-14T10:39:28.640Z,1015.90
2022-11-14T10:40:28.609Z,1015.98
2022-11-14T10:41:54.956Z,1015.94
2022-11-14T10:42:29.585Z,1015.93
2022-11-14T10:43:28.576Z,1015.89
2022-11-14T10:44:28.597Z,1015.97
2022-11-14T10:45:28.560Z,1015.87
2022-11-14T10:46:28.562Z,1015.81
2022-11-14T10:47:28.537Z,1015.81
2022-11-14T10:48:28.863Z,1015.80
2022-11-14T10:49:28.540Z,1015.76
2022-11-14T10:50:28.510Z,1015.83
2022-11-14T10:51:28.518Z,1015.77
2022-11-14T10:52:28.485Z,1015.83
2022-11-14T10:53:28.488Z,1015.84
2022-11-14T10:54:28.458Z,1015.79
2022-11-14T10:55:57.443Z,1015.72
2022-11-14T10:56:29.468Z,1015.75
2022-11-14T10:57:28.426Z,1015.68
2022-11-14T10:58:28.779Z,1015.65
2022-11-14T10:59:28.409Z,1015.63
2022-11-14T11:00:28.395Z,1015.62
2022-11-14T11:01:28.450Z,1015.65
2022-11-14T11:02:32.724Z,1015.69
2022-11-14T11:03:29.405Z,1015.67
2022-11-14T11:04:28.557Z,1015.74
2022-11-14T11:05:28.346Z,1015.65
2022-11-14T11:06:28.333Z,1015.67
2022-11-14T11:07:28.396Z,1015.64
2022-11-14T11:08:42.563Z,1015.62
2022-11-14T11:09:29.368Z,1015.66
2022-11-14T11:10:28.285Z,1015.61
2022-11-14T11:11:28.278Z,1015.56
2022-11-14T11:12:28.363Z,1015.55
2022-11-14T11:13:28.273Z,1015.56
2022-11-14T11:14:28.252Z,1015.52
2022-11-14T11:15:28.225Z,1015.53
2022-11-14T11:16:28.227Z,1015.54
2022-11-14T11:17:35.851Z,1015.56
2022-11-14T11:18:29.742Z,1015.48
2022-11-14T11:19:28.190Z,1015.52
2022-11-14T11:20:28.200Z,1015.42
2022-11-14T11:21:28.192Z,1015.45
2022-11-14T11:22:28.177Z,1015.44
2022-11-14T11:23:28.193Z,1015.47
2022-11-14T11:24:28.140Z,1015.42
2022-11-14T11:25:28.142Z,1015.44
2022-11-14T11:26:28.136Z,1015.50
2022-11-14T11:27:28.119Z,1015.47
2022-11-14T11:28:28.336Z,1015.45
2022-11-14T11:29:28.076Z,1015.47
2022-11-14T11:30:28.058Z,1015.42
2022-11-14T11:31:28.098Z,1015.47
2022-11-14T11:32:28.063Z,1015.42
2022-11-14T11:33:28.406Z,1015.39
2022-11-14T11:34:28.046Z,1015.37
2022-11-14T11:35:28.004Z,1015.41
2022-11-14T11:36:28.002Z,1015.32
2022-11-14T11:38:28.137Z,1015.36
2022-11-14T11:39:28.010Z,1015.33
2022-11-14T11:40:27.960Z,1015.28
2022-11-14T11:42:07.635Z,1015.27
2022-11-14T11:43:06.208Z,1015.21
2022-11-14T11:43:44.379Z,1015.21
2022-11-14T11:44:28.901Z,1015.22
2022-11-14T11:45:27.934Z,1015.18
2022-11-14T11:46:27.891Z,1015.17
2022-11-14T11:47:27.873Z,1015.12
2022-11-14T11:48:27.883Z,1015.07
2022-11-14T11:49:27.855Z,1015.08
2022-11-14T11:50:27.863Z,1015.05
2022-11-14T11:51:27.834Z,1015.04
2022-11-14T11:52:27.819Z,1015.00
2022-11-14T11:53:28.225Z,1014.99
2022-11-14T11:54:27.797Z,1015.03
2022-11-14T11:55:27.811Z,1014.97
2022-11-14T11:56:27.778Z,1015.00
2022-11-14T11:57:27.784Z,1015.02
2022-11-14T11:58:27.754Z,1015.10
2022-11-14T11:59:27.750Z,1015.02
2022-11-14T12:00:27.764Z,1015.03
2022-11-14T12:01:27.728Z,1015.03
2022-11-14T12:02:27.864Z,1015.01
2022-11-14T12:03:27.849Z,1015.05
2022-11-14T12:04:27.690Z,1015.02
2022-11-14T12:05:27.686Z,1015.00
2022-11-14T12:06:27.694Z,1014.91